sensor_id;sensor_type;location;lat;lon;timestamp;pressure;altitude;pressure_sealevel;temperature;humidity
82872;BME280;72646;43.596;1.428;2023-11-18T00:00:26;100697.78;;;19.88;50.75
82872;BME280;72646;43.596;1.428;2023-11-18T00:02:51;100714.66;;;19.98;50.54
82872;BME280;72646;43.596;1.428;2023-11-18T00:05:17;100705.97;;;19.94;50.75
82872;BME280;72646;43.596;1.428;2023-11-18T00:07:43;100710.56;;;20.00;50.64
82872;BME280;72646;43.596;1.428;2023-11-18T00:10:08;100707.31;;;20.03;50.42
82872;BME280;72646;43.596;1.428;2023-11-18T00:12:35;100700.91;;;20.03;50.64
82872;BME280;72646;43.596;1.428;2023-11-18T00:15:03;100697.31;;;20.02;50.47
82872;BME280;72646;43.596;1.428;2023-11-18T00:17:30;100684.75;;;20.00;50.56
82872;BME280;72646;43.596;1.428;2023-11-18T00:19:56;100695.75;;;20.06;50.36
82872;BME280;72646;43.596;1.428;2023-11-18T00:22:21;100683.22;;;20.04;50.41
82872;BME280;72646;43.596;1.428;2023-11-18T00:24:46;100688.00;;;20.08;50.22
82872;BME280;72646;43.596;1.428;2023-11-18T00:27:12;100667.16;;;20.06;50.07
82872;BME280;72646;43.596;1.428;2023-11-18T00:29:40;100673.72;;;20.11;50.22
82872;BME280;72646;43.596;1.428;2023-11-18T00:32:05;100656.31;;;20.04;50.16
82872;BME280;72646;43.596;1.428;2023-11-18T00:34:32;100664.53;;;20.11;50.19
82872;BME280;72646;43.596;1.428;2023-11-18T00:36:58;100659.00;;;20.11;50.27
82872;BME280;72646;43.596;1.428;2023-11-18T00:39:24;100654.91;;;20.13;50.15
82872;BME280;72646;43.596;1.428;2023-11-18T00:41:49;100637.88;;;20.10;50.12
82872;BME280;72646;43.596;1.428;2023-11-18T00:44:15;100644.94;;;20.12;50.08
82872;BME280;72646;43.596;1.428;2023-11-18T00:46:40;100648.41;;;20.19;49.72
82872;BME280;72646;43.596;1.428;2023-11-18T00:49:05;100647.09;;;20.22;49.99
82872;BME280;72646;43.596;1.428;2023-11-18T00:51:31;100635.38;;;20.20;49.75
82872;BME280;72646;43.596;1.428;2023-11-18T00:53:57;100646.22;;;20.21;49.85
82872;BME280;72646;43.596;1.428;2023-11-18T00:56:22;100649.13;;;20.26;49.75
82872;BME280;72646;43.596;1.428;2023-11-18T00:58:48;100649.13;;;20.26;49.62
82872;BME280;72646;43.596;1.428;2023-11-18T01:01:14;100653.59;;;20.27;49.40
82872;BME280;72646;43.596;1.428;2023-11-18T01:03:46;100632.13;;;20.23;49.43
82872;BME280;72646;43.596;1.428;2023-11-18T01:06:12;100634.06;;;20.22;49.41
82872;BME280;72646;43.596;1.428;2023-11-18T01:08:38;100628.53;;;20.22;49.52
82872;BME280;72646;43.596;1.428;2023-11-18T01:11:04;100637.66;;;20.23;49.47
82872;BME280;72646;43.596;1.428;2023-11-18T01:13:30;100634.41;;;20.26;49.31
82872;BME280;72646;43.596;1.428;2023-11-18T01:15:56;100629.34;;;20.23;49.41
82872;BME280;72646;43.596;1.428;2023-11-18T01:18:22;100632.72;;;20.25;49.27
82872;BME280;72646;43.596;1.428;2023-11-18T01:20:47;100643.09;;;20.29;49.37
82872;BME280;72646;43.596;1.428;2023-11-18T01:23:13;100612.38;;;20.19;49.38
82872;BME280;72646;43.596;1.428;2023-11-18T01:25:39;100631.88;;;20.24;49.28
82872;BME280;72646;43.596;1.428;2023-11-18T01:28:05;100640.56;;;20.28;49.31
82872;BME280;72646;43.596;1.428;2023-11-18T01:30:31;100630.06;;;20.30;49.39
82872;BME280;72646;43.596;1.428;2023-11-18T01:32:57;100639.00;;;20.32;49.36
82872;BME280;72646;43.596;1.428;2023-11-18T01:35:23;100629.72;;;20.26;49.28
82872;BME280;72646;43.596;1.428;2023-11-18T01:37:51;100631.41;;;20.27;49.38
82872;BME280;72646;43.596;1.428;2023-11-18T01:40:17;100645.41;;;20.32;49.26
82872;BME280;72646;43.596;1.428;2023-11-18T01:42:46;100638.75;;;20.22;49.37
82872;BME280;72646;43.596;1.428;2023-11-18T01:45:12;100652.47;;;20.28;49.65
82872;BME280;72646;43.596;1.428;2023-11-18T01:47:38;100640.69;;;20.21;49.24
82872;BME280;72646;43.596;1.428;2023-11-18T01:50:06;100644.66;;;20.25;49.93
82872;BME280;72646;43.596;1.428;2023-11-18T01:52:33;100635.50;;;20.25;49.62
82872;BME280;72646;43.596;1.428;2023-11-18T01:54:59;100616.22;;;20.18;49.73
82872;BME280;72646;43.596;1.428;2023-11-18T01:57:25;100617.91;;;20.19;49.98
82872;BME280;72646;43.596;1.428;2023-11-18T01:59:53;100631.88;;;20.24;49.98
82872;BME280;72646;43.596;1.428;2023-11-18T02:02:19;100632.38;;;20.21;50.01
82872;BME280;72646;43.596;1.428;2023-11-18T02:04:46;100642.13;;;20.24;50.06
82872;BME280;72646;43.596;1.428;2023-11-18T02:07:11;100619.22;;;20.17;50.15
82872;BME280;72646;43.596;1.428;2023-11-18T02:09:43;100624.78;;;20.17;50.10
82872;BME280;72646;43.596;1.428;2023-11-18T02:14:43;100625.25;;;20.14;50.01
82872;BME280;72646;43.596;1.428;2023-11-18T02:17:13;100628.41;;;20.17;50.24
82872;BME280;72646;43.596;1.428;2023-11-18T02:19:39;100623.47;;;20.19;50.10
82872;BME280;72646;43.596;1.428;2023-11-18T02:22:06;100616.69;;;20.15;50.14
82872;BME280;72646;43.596;1.428;2023-11-18T02:24:33;100617.31;;;20.17;49.79
82872;BME280;72646;43.596;1.428;2023-11-18T02:27:03;100633.22;;;20.22;49.66
82872;BME280;72646;43.596;1.428;2023-11-18T02:29:34;100628.88;;;20.26;49.72
82872;BME280;72646;43.596;1.428;2023-11-18T02:32:33;100622.13;;;20.22;49.56
82872;BME280;72646;43.596;1.428;2023-11-18T02:35:22;100614.66;;;20.22;49.54
82872;BME280;72646;43.596;1.428;2023-11-18T02:37:50;100602.97;;;20.20;49.65
82872;BME280;72646;43.596;1.428;2023-11-18T02:40:47;100612.00;;;20.27;49.61
82872;BME280;72646;43.596;1.428;2023-11-18T02:43:18;100607.06;;;20.29;49.30
82872;BME280;72646;43.596;1.428;2023-11-18T02:45:44;100596.53;;;20.31;49.29
82872;BME280;72646;43.596;1.428;2023-11-18T02:48:12;100594.88;;;20.30;49.25
82872;BME280;72646;43.596;1.428;2023-11-18T02:50:40;100593.78;;;20.31;49.21
82872;BME280;72646;43.596;1.428;2023-11-18T02:53:06;100598.72;;;20.29;49.02
82872;BME280;72646;43.596;1.428;2023-11-18T02:55:34;100594.00;;;20.30;48.80
82872;BME280;72646;43.596;1.428;2023-11-18T02:58:00;100588.72;;;20.28;49.22
82872;BME280;72646;43.596;1.428;2023-11-18T03:00:26;100581.47;;;20.27;49.00
82872;BME280;72646;43.596;1.428;2023-11-18T03:02:52;100582.22;;;20.23;49.30
82872;BME280;72646;43.596;1.428;2023-11-18T03:05:18;100589.31;;;20.30;49.06
82872;BME280;72646;43.596;1.428;2023-11-18T03:07:44;100589.06;;;20.32;48.88
82872;BME280;72646;43.596;1.428;2023-11-18T03:10:13;100569.91;;;20.30;48.84
82872;BME280;72646;43.596;1.428;2023-11-18T03:12:51;100563.88;;;20.33;48.82
82872;BME280;72646;43.596;1.428;2023-11-18T03:15:21;100559.53;;;20.37;48.90
82872;BME280;72646;43.596;1.428;2023-11-18T03:17:50;100555.81;;;20.32;48.45
82872;BME280;72646;43.596;1.428;2023-11-18T03:20:20;100576.41;;;20.36;48.53
82872;BME280;72646;43.596;1.428;2023-11-18T03:22:46;100580.59;;;20.38;48.43
82872;BME280;72646;43.596;1.428;2023-11-18T03:25:13;100571.72;;;20.36;48.39
82872;BME280;72646;43.596;1.428;2023-11-18T03:27:39;100571.94;;;20.35;48.47
82872;BME280;72646;43.596;1.428;2023-11-18T03:30:05;100557.47;;;20.33;48.11
82872;BME280;72646;43.596;1.428;2023-11-18T03:32:35;100558.09;;;20.35;48.46
82872;BME280;72646;43.596;1.428;2023-11-18T03:35:05;100566.91;;;20.32;48.50
82872;BME280;72646;43.596;1.428;2023-11-18T03:37:39;100563.25;;;20.31;48.27
82872;BME280;72646;43.596;1.428;2023-11-18T03:40:10;100557.63;;;20.26;48.33
82872;BME280;72646;43.596;1.428;2023-11-18T03:42:40;100559.78;;;20.24;48.19
82872;BME280;72646;43.596;1.428;2023-11-18T03:45:06;100550.91;;;20.22;48.27
82872;BME280;72646;43.596;1.428;2023-11-18T03:47:32;100544.75;;;20.20;48.43
82872;BME280;72646;43.596;1.428;2023-11-18T03:49:58;100552.09;;;20.26;48.28
82872;BME280;72646;43.596;1.428;2023-11-18T03:52:24;100548.22;;;20.27;48.56
82872;BME280;72646;43.596;1.428;2023-11-18T03:54:49;100550.38;;;20.25;48.40
82872;BME280;72646;43.596;1.428;2023-11-18T03:57:15;100537.50;;;20.19;48.30
82872;BME280;72646;43.596;1.428;2023-11-18T03:59:40;100547.59;;;20.25;48.29
82872;BME280;72646;43.596;1.428;2023-11-18T04:02:06;100534.38;;;20.16;48.62
82872;BME280;72646;43.596;1.428;2023-11-18T04:04:32;100543.63;;;20.21;48.59
82872;BME280;72646;43.596;1.428;2023-11-18T04:06:57;100536.91;;;20.17;48.43
82872;BME280;72646;43.596;1.428;2023-11-18T04:09:22;100551.97;;;20.21;48.50
82872;BME280;72646;43.596;1.428;2023-11-18T04:11:48;100551.63;;;20.18;48.57
82872;BME280;72646;43.596;1.428;2023-11-18T04:14:14;100555.81;;;20.20;48.34
82872;BME280;72646;43.596;1.428;2023-11-18T04:16:39;100544.47;;;20.10;48.43
82872;BME280;72646;43.596;1.428;2023-11-18T04:19:04;100561.63;;;20.19;48.56
82872;BME280;72646;43.596;1.428;2023-11-18T04:21:31;100564.63;;;20.17;48.79
82872;BME280;72646;43.596;1.428;2023-11-18T04:23:56;100564.00;;;20.15;48.34
82872;BME280;72646;43.596;1.428;2023-11-18T04:26:21;100552.34;;;20.13;48.54
82872;BME280;72646;43.596;1.428;2023-11-18T04:28:47;100559.56;;;20.14;48.39
82872;BME280;72646;43.596;1.428;2023-11-18T04:31:12;100555.94;;;20.14;48.50
82872;BME280;72646;43.596;1.428;2023-11-18T04:33:38;100559.94;;;20.18;48.47
82872;BME280;72646;43.596;1.428;2023-11-18T04:36:07;100560.19;;;20.16;48.51
82872;BME280;72646;43.596;1.428;2023-11-18T04:38:35;100559.56;;;20.14;48.60
82872;BME280;72646;43.596;1.428;2023-11-18T04:41:00;100555.34;;;20.12;48.60
82872;BME280;72646;43.596;1.428;2023-11-18T04:43:28;100559.56;;;20.14;48.43
82872;BME280;72646;43.596;1.428;2023-11-18T04:45:54;100553.16;;;20.14;48.59
82872;BME280;72646;43.596;1.428;2023-11-18T04:48:19;100554.25;;;20.13;48.39
82872;BME280;72646;43.596;1.428;2023-11-18T04:50:46;100538.31;;;20.08;48.39
82872;BME280;72646;43.596;1.428;2023-11-18T04:53:12;100544.03;;;20.13;48.26
82872;BME280;72646;43.596;1.428;2023-11-18T04:55:38;100542.56;;;20.11;48.63
82872;BME280;72646;43.596;1.428;2023-11-18T04:58:03;100543.03;;;20.08;48.64
82872;BME280;72646;43.596;1.428;2023-11-18T05:00:31;100546.81;;;20.13;48.73
82872;BME280;72646;43.596;1.428;2023-11-18T05:02:58;100535.56;;;20.08;48.83
82872;BME280;72646;43.596;1.428;2023-11-18T05:05:23;100525.22;;;20.04;48.66
82872;BME280;72646;43.596;1.428;2023-11-18T05:07:48;100527.72;;;20.05;48.64
82872;BME280;72646;43.596;1.428;2023-11-18T05:10:14;100524.47;;;20.08;48.67
82872;BME280;72646;43.596;1.428;2023-11-18T05:12:40;100516.91;;;20.04;48.50
82872;BME280;72646;43.596;1.428;2023-11-18T05:15:06;100512.81;;;20.06;48.32
82872;BME280;72646;43.596;1.428;2023-11-18T05:17:34;100527.41;;;20.13;48.38
82872;BME280;72646;43.596;1.428;2023-11-18T05:20:04;100528.50;;;20.12;48.42
82872;BME280;72646;43.596;1.428;2023-11-18T05:22:30;100527.00;;;20.10;48.41
82872;BME280;72646;43.596;1.428;2023-11-18T05:24:57;100534.03;;;20.12;48.17
82872;BME280;72646;43.596;1.428;2023-11-18T05:27:23;100522.53;;;20.09;48.34
82872;BME280;72646;43.596;1.428;2023-11-18T05:29:48;100529.56;;;20.11;48.43
82872;BME280;72646;43.596;1.428;2023-11-18T05:32:20;100526.41;;;20.08;48.33
82872;BME280;72646;43.596;1.428;2023-11-18T05:34:45;100521.69;;;20.08;48.20
82872;BME280;72646;43.596;1.428;2023-11-18T05:37:11;100520.88;;;20.08;48.42
82872;BME280;72646;43.596;1.428;2023-11-18T05:39:37;100518.09;;;20.08;48.32
82872;BME280;72646;43.596;1.428;2023-11-18T05:42:08;100523.41;;;20.09;48.11
82872;BME280;72646;43.596;1.428;2023-11-18T05:44:38;100515.09;;;20.09;48.25
82872;BME280;72646;43.596;1.428;2023-11-18T05:47:07;100523.78;;;20.13;48.25
82872;BME280;72646;43.596;1.428;2023-11-18T05:49:34;100519.53;;;20.10;48.33
82872;BME280;72646;43.596;1.428;2023-11-18T05:51:59;100507.59;;;20.10;48.17
82872;BME280;72646;43.596;1.428;2023-11-18T05:54:25;100503.63;;;20.06;48.13
82872;BME280;72646;43.596;1.428;2023-11-18T05:56:51;100512.69;;;20.13;48.14
82872;BME280;72646;43.596;1.428;2023-11-18T05:59:16;100516.56;;;20.12;48.31
82872;BME280;72646;43.596;1.428;2023-11-18T06:01:42;100510.53;;;20.15;48.21
82872;BME280;72646;43.596;1.428;2023-11-18T06:04:07;100517.63;;;20.22;48.25
82872;BME280;72646;43.596;1.428;2023-11-18T06:06:36;100522.06;;;20.23;48.20
82872;BME280;72646;43.596;1.428;2023-11-18T06:09:02;100523.16;;;20.22;48.19
82872;BME280;72646;43.596;1.428;2023-11-18T06:11:34;100515.91;;;20.21;48.11
82872;BME280;72646;43.596;1.428;2023-11-18T06:14:00;100520.63;;;20.21;47.89
82872;BME280;72646;43.596;1.428;2023-11-18T06:16:26;100512.81;;;20.18;47.92
82872;BME280;72646;43.596;1.428;2023-11-18T06:18:57;100520.03;;;20.19;47.89
82872;BME280;72646;43.596;1.428;2023-11-18T06:21:25;100523.66;;;20.19;47.47
82872;BME280;72646;43.596;1.428;2023-11-18T06:23:55;100507.13;;;20.13;47.42
82872;BME280;72646;43.596;1.428;2023-11-18T06:26:20;100477.97;;;19.99;47.47
82872;BME280;72646;43.596;1.428;2023-11-18T06:28:48;100521.47;;;20.21;47.37
82872;BME280;72646;43.596;1.428;2023-11-18T06:31:16;100527.13;;;20.26;47.38
82872;BME280;72646;43.596;1.428;2023-11-18T06:33:45;100524.34;;;20.26;47.75
82872;BME280;72646;43.596;1.428;2023-11-18T06:38:39;100536.41;;;20.20;47.69
82872;BME280;72646;43.596;1.428;2023-11-18T06:41:06;100522.31;;;20.22;47.42
82872;BME280;72646;43.596;1.428;2023-11-18T06:43:35;100521.47;;;20.21;47.45
82872;BME280;72646;43.596;1.428;2023-11-18T06:46:21;100510.16;;;20.11;47.42
82872;BME280;72646;43.596;1.428;2023-11-18T06:48:50;100523.66;;;20.19;47.24
82872;BME280;72646;43.596;1.428;2023-11-18T06:51:22;100527.00;;;20.21;47.49
82872;BME280;72646;43.596;1.428;2023-11-18T06:53:51;100529.16;;;20.31;47.37
82872;BME280;72646;43.596;1.428;2023-11-18T06:56:17;100530.97;;;20.25;47.56
82872;BME280;72646;43.596;1.428;2023-11-18T06:58:43;100525.31;;;20.20;47.83
82872;BME280;72646;43.596;1.428;2023-11-18T07:01:09;100539.28;;;20.25;47.56
82872;BME280;72646;43.596;1.428;2023-11-18T07:03:38;100526.06;;;20.16;47.58
82872;BME280;72646;43.596;1.428;2023-11-18T07:06:04;100519.09;;;20.13;47.44
82872;BME280;72646;43.596;1.428;2023-11-18T07:08:31;100531.22;;;20.24;47.53
82872;BME280;72646;43.596;1.428;2023-11-18T07:10:57;100532.44;;;20.28;47.20
82872;BME280;72646;43.596;1.428;2023-11-18T07:13:22;100524.59;;;20.25;47.41
82872;BME280;72646;43.596;1.428;2023-11-18T07:15:49;100530.22;;;20.30;47.19
82872;BME280;72646;43.596;1.428;2023-11-18T07:18:15;100529.66;;;20.28;47.49
82872;BME280;72646;43.596;1.428;2023-11-18T07:20:41;100535.78;;;20.30;47.38
82872;BME280;72646;43.596;1.428;2023-11-18T07:23:07;100544.47;;;20.33;47.24
82872;BME280;72646;43.596;1.428;2023-11-18T07:25:34;100537.13;;;20.27;47.57
82872;BME280;72646;43.596;1.428;2023-11-18T07:27:59;100535.94;;;20.23;47.72
82872;BME280;72646;43.596;1.428;2023-11-18T07:30:25;100538.22;;;20.26;47.51
82872;BME280;72646;43.596;1.428;2023-11-18T07:32:50;100540.38;;;20.24;47.24
82872;BME280;72646;43.596;1.428;2023-11-18T07:35:16;100545.94;;;20.24;47.32
82872;BME280;72646;43.596;1.428;2023-11-18T07:37:43;100545.94;;;20.24;47.43
82872;BME280;72646;43.596;1.428;2023-11-18T07:40:08;100525.19;;;20.15;47.46
82872;BME280;72646;43.596;1.428;2023-11-18T07:42:37;100527.69;;;20.28;47.09
82872;BME280;72646;43.596;1.428;2023-11-18T07:45:04;100538.91;;;20.33;46.84
82872;BME280;72646;43.596;1.428;2023-11-18T07:47:43;100537.81;;;20.34;47.26
82872;BME280;72646;43.596;1.428;2023-11-18T07:50:08;100533.13;;;20.35;46.90
82872;BME280;72646;43.596;1.428;2023-11-18T07:52:37;100532.66;;;20.38;46.78
82872;BME280;72646;43.596;1.428;2023-11-18T07:55:03;100532.53;;;20.33;46.78
82872;BME280;72646;43.596;1.428;2023-11-18T07:57:29;100545.03;;;20.35;46.93
82872;BME280;72646;43.596;1.428;2023-11-18T07:59:54;100530.38;;;20.23;46.88
82872;BME280;72646;43.596;1.428;2023-11-18T08:02:20;100550.34;;;20.37;46.70
82872;BME280;72646;43.596;1.428;2023-11-18T08:04:45;100556.13;;;20.35;46.91
82872;BME280;72646;43.596;1.428;2023-11-18T08:07:11;100543.03;;;20.31;46.95
82872;BME280;72646;43.596;1.428;2023-11-18T08:09:36;100540.75;;;20.28;47.08
82872;BME280;72646;43.596;1.428;2023-11-18T08:12:05;100548.06;;;20.34;47.23
82872;BME280;72646;43.596;1.428;2023-11-18T08:14:31;100536.03;;;20.28;47.38
82872;BME280;72646;43.596;1.428;2023-11-18T08:16:57;100539.16;;;20.32;47.07
82872;BME280;72646;43.596;1.428;2023-11-18T08:19:25;100545.66;;;20.37;47.09
82872;BME280;72646;43.596;1.428;2023-11-18T08:21:50;100536.72;;;20.35;47.16
82872;BME280;72646;43.596;1.428;2023-11-18T08:24:17;100546.75;;;20.36;47.12
82872;BME280;72646;43.596;1.428;2023-11-18T08:26:42;100537.13;;;20.27;46.99
82872;BME280;72646;43.596;1.428;2023-11-18T08:29:08;100534.34;;;20.27;47.30
82872;BME280;72646;43.596;1.428;2023-11-18T08:31:33;100552.28;;;20.36;47.00
82872;BME280;72646;43.596;1.428;2023-11-18T08:33:59;100551.56;;;20.41;46.83
82872;BME280;72646;43.596;1.428;2023-11-18T08:36:25;100546.09;;;20.46;46.86
82872;BME280;72646;43.596;1.428;2023-11-18T08:38:53;100541.41;;;20.46;46.78
82872;BME280;72646;43.596;1.428;2023-11-18T08:41:19;100539.47;;;20.47;46.59
82872;BME280;72646;43.596;1.428;2023-11-18T08:43:45;100523.59;;;20.42;46.90
82872;BME280;72646;43.596;1.428;2023-11-18T08:46:12;100527.78;;;20.45;46.75
82872;BME280;72646;43.596;1.428;2023-11-18T08:48:39;100539.22;;;20.48;46.95
82872;BME280;72646;43.596;1.428;2023-11-18T08:51:05;100532.25;;;20.46;46.55
82872;BME280;72646;43.596;1.428;2023-11-18T08:53:33;100542.59;;;20.50;46.66
82872;BME280;72646;43.596;1.428;2023-11-18T08:56:09;100539.72;;;20.45;46.93
82872;BME280;72646;43.596;1.428;2023-11-18T08:58:43;100534.69;;;20.42;46.76
82872;BME280;72646;43.596;1.428;2023-11-18T09:01:10;100547.06;;;20.51;46.66
82872;BME280;72646;43.596;1.428;2023-11-18T09:03:39;100534.16;;;20.45;46.67
82872;BME280;72646;43.596;1.428;2023-11-18T09:06:17;100552.97;;;20.55;46.61
82872;BME280;72646;43.596;1.428;2023-11-18T09:08:44;100561.28;;;20.55;46.47
82872;BME280;72646;43.596;1.428;2023-11-18T09:11:11;100557.41;;;20.56;46.67
82872;BME280;72646;43.596;1.428;2023-11-18T09:13:41;100543.53;;;20.56;46.63
82872;BME280;72646;43.596;1.428;2023-11-18T09:16:08;100544.72;;;20.60;46.61
82872;BME280;72646;43.596;1.428;2023-11-18T09:18:35;100531.84;;;20.54;46.49
82872;BME280;72646;43.596;1.428;2023-11-18T09:21:04;100541.88;;;20.55;46.68
82872;BME280;72646;43.596;1.428;2023-11-18T09:23:33;100542.44;;;20.57;46.72
82872;BME280;72646;43.596;1.428;2023-11-18T09:26:00;100544.97;;;20.58;46.56
82872;BME280;72646;43.596;1.428;2023-11-18T09:28:26;100547.75;;;20.58;46.76
82872;BME280;72646;43.596;1.428;2023-11-18T09:30:54;100529.84;;;20.49;46.66
82872;BME280;72646;43.596;1.428;2023-11-18T09:34:21;100541.00;;;20.54;47.17
82872;BME280;72646;43.596;1.428;2023-11-18T09:36:54;100531.00;;;20.53;46.74
82872;BME280;72646;43.596;1.428;2023-11-18T09:39:20;100525.47;;;20.53;46.99
82872;BME280;72646;43.596;1.428;2023-11-18T09:41:58;100514.25;;;20.48;47.00
82872;BME280;72646;43.596;1.428;2023-11-18T09:44:27;100515.47;;;20.52;46.73
82872;BME280;72646;43.596;1.428;2023-11-18T09:46:56;100520.75;;;20.54;46.79
82872;BME280;72646;43.596;1.428;2023-11-18T09:49:32;100522.56;;;20.48;46.82
82872;BME280;72646;43.596;1.428;2023-11-18T09:52:05;100531.75;;;20.49;47.10
82872;BME280;72646;43.596;1.428;2023-11-18T09:54:39;100528.13;;;20.48;46.95
82872;BME280;72646;43.596;1.428;2023-11-18T09:57:18;100528.13;;;20.48;47.03
82872;BME280;72646;43.596;1.428;2023-11-18T10:00:12;100529.84;;;20.49;47.01
82872;BME280;72646;43.596;1.428;2023-11-18T10:02:52;100529.22;;;20.47;47.00
82872;BME280;72646;43.596;1.428;2023-11-18T10:05:18;100532.34;;;20.51;46.87
82872;BME280;72646;43.596;1.428;2023-11-18T10:07:48;100536.19;;;20.50;46.90
82872;BME280;72646;43.596;1.428;2023-11-18T10:10:14;100536.19;;;20.50;47.14
82872;BME280;72646;43.596;1.428;2023-11-18T10:12:47;100522.50;;;20.43;47.01
82872;BME280;72646;43.596;1.428;2023-11-18T10:15:18;100532.25;;;20.46;47.12
82872;BME280;72646;43.596;1.428;2023-11-18T10:17:49;100538.03;;;20.44;47.20
82872;BME280;72646;43.596;1.428;2023-11-18T10:20:48;100534.31;;;20.39;47.37
82872;BME280;72646;43.596;1.428;2023-11-18T10:23:18;100528.94;;;20.32;47.88
82872;BME280;72646;43.596;1.428;2023-11-18T10:25:52;100528.06;;;20.32;49.02
82872;BME280;72646;43.596;1.428;2023-11-18T10:28:28;100515.91;;;20.21;51.45
82872;BME280;72646;43.596;1.428;2023-11-18T10:30:55;100528.66;;;20.34;52.41
82872;BME280;72646;43.596;1.428;2023-11-18T10:33:26;100521.66;;;20.31;54.85
82872;BME280;72646;43.596;1.428;2023-11-18T10:35:56;100516.13;;;20.31;56.59
82872;BME280;72646;43.596;1.428;2023-11-18T10:38:23;100524.31;;;20.38;56.71
82872;BME280;72646;43.596;1.428;2023-11-18T10:40:54;100516.34;;;20.41;56.97
82872;BME280;72646;43.596;1.428;2023-11-18T10:43:21;100512.97;;;20.39;57.11
82872;BME280;72646;43.596;1.428;2023-11-18T10:46:11;100503.97;;;20.32;56.57
82872;BME280;72646;43.596;1.428;2023-11-18T10:48:46;100495.78;;;20.26;56.32
82872;BME280;72646;43.596;1.428;2023-11-18T10:51:20;100505.66;;;20.33;56.18
82872;BME280;72646;43.596;1.428;2023-11-18T10:53:50;100491.31;;;20.25;56.08
82872;BME280;72646;43.596;1.428;2023-11-18T10:56:23;100496.97;;;20.30;55.99
82872;BME280;72646;43.596;1.428;2023-11-18T10:59:13;100495.53;;;20.27;55.96
82872;BME280;72646;43.596;1.428;2023-11-18T11:01:44;100487.69;;;20.24;55.92
82872;BME280;72646;43.596;1.428;2023-11-18T11:04:10;100490.72;;;20.23;55.63
82872;BME280;72646;43.596;1.428;2023-11-18T11:06:41;100482.66;;;20.21;55.68
82872;BME280;72646;43.596;1.428;2023-11-18T11:09:08;100472.53;;;20.15;55.18
82872;BME280;72646;43.596;1.428;2023-11-18T11:11:49;100471.47;;;20.16;55.20
82872;BME280;72646;43.596;1.428;2023-11-18T11:14:20;100461.97;;;20.12;55.31
82872;BME280;72646;43.596;1.428;2023-11-18T11:16:51;100450.97;;;20.06;55.05
82872;BME280;72646;43.596;1.428;2023-11-18T11:21:54;100442.91;;;20.04;54.53
82872;BME280;72646;43.596;1.428;2023-11-18T11:24:37;100446.28;;;20.06;54.88
82872;BME280;72646;43.596;1.428;2023-11-18T11:27:20;100454.72;;;20.11;54.72
82872;BME280;72646;43.596;1.428;2023-11-18T11:30:09;100447.09;;;20.07;54.37
82872;BME280;72646;43.596;1.428;2023-11-18T11:33:12;100457.25;;;20.13;54.31
82872;BME280;72646;43.596;1.428;2023-11-18T11:35:43;100461.09;;;20.12;54.28
82872;BME280;72646;43.596;1.428;2023-11-18T11:38:15;100452.06;;;20.05;54.37
82872;BME280;72646;43.596;1.428;2023-11-18T11:40:42;100444.47;;;20.00;54.27
82872;BME280;72646;43.596;1.428;2023-11-18T11:43:10;100456.03;;;20.09;54.19
82872;BME280;72646;43.596;1.428;2023-11-18T11:45:50;100450.38;;;20.04;54.09
82872;BME280;72646;43.596;1.428;2023-11-18T11:48:17;100446.28;;;20.06;53.97
82872;BME280;72646;43.596;1.428;2023-11-18T11:54:27;100451.44;;;20.03;53.82
82872;BME280;72646;43.596;1.428;2023-11-18T11:56:57;100438.00;;;19.95;53.63
82872;BME280;72646;43.596;1.428;2023-11-18T12:02:13;100417.97;;;19.93;53.62
82872;BME280;72646;43.596;1.428;2023-11-18T12:04:44;100421.13;;;19.96;53.36
82872;BME280;72646;43.596;1.428;2023-11-18T12:07:10;100424.22;;;20.00;53.55
82872;BME280;72646;43.596;1.428;2023-11-18T12:09:36;100425.06;;;20.00;53.43
82872;BME280;72646;43.596;1.428;2023-11-18T12:12:05;100422.56;;;19.99;53.16
82872;BME280;72646;43.596;1.428;2023-11-18T12:14:52;100396.53;;;19.88;53.34
82872;BME280;72646;43.596;1.428;2023-11-18T12:17:18;100415.09;;;19.99;53.17
82872;BME280;72646;43.596;1.428;2023-11-18T12:19:48;100398.00;;;19.91;53.19
82872;BME280;72646;43.596;1.428;2023-11-18T12:22:14;100410.84;;;19.97;53.23
82872;BME280;72646;43.596;1.428;2023-11-18T12:35:25;100412.44;;;19.93;52.62
82872;BME280;72646;43.596;1.428;2023-11-18T12:40:52;100408.59;;;19.94;52.72
82872;BME280;72646;43.596;1.428;2023-11-18T12:46:18;100399.19;;;19.95;52.69
82872;BME280;72646;43.596;1.428;2023-11-18T12:48:56;100405.84;;;19.94;52.47
82872;BME280;72646;43.596;1.428;2023-11-18T12:51:22;100401.34;;;19.93;52.45
82872;BME280;72646;43.596;1.428;2023-11-18T12:53:48;100394.13;;;19.92;52.64
82872;BME280;72646;43.596;1.428;2023-11-18T12:56:17;100392.47;;;19.91;52.13
82872;BME280;72646;43.596;1.428;2023-11-18T12:58:47;100383.53;;;19.89;52.22
82872;BME280;72646;43.596;1.428;2023-11-18T13:01:14;100373.19;;;19.84;52.05
82872;BME280;72646;43.596;1.428;2023-11-18T13:03:41;100377.31;;;19.82;52.19
82872;BME280;72646;43.596;1.428;2023-11-18T13:06:08;100365.38;;;19.81;51.93
82872;BME280;72646;43.596;1.428;2023-11-18T13:08:34;100366.72;;;19.79;52.09
82872;BME280;72646;43.596;1.428;2023-11-18T13:11:00;100377.06;;;19.83;51.84
82872;BME280;72646;43.596;1.428;2023-11-18T13:13:28;100366.47;;;19.80;51.91
82872;BME280;72646;43.596;1.428;2023-11-18T13:15:55;100372.72;;;19.87;52.02
82872;BME280;72646;43.596;1.428;2023-11-18T13:18:20;100369.69;;;19.89;51.83
82872;BME280;72646;43.596;1.428;2023-11-18T13:20:56;100357.31;;;19.80;51.74
82872;BME280;72646;43.596;1.428;2023-11-18T13:23:25;100356.56;;;19.84;52.19
82872;BME280;72646;43.596;1.428;2023-11-18T13:25:50;100367.16;;;19.87;51.86
82872;BME280;72646;43.596;1.428;2023-11-18T13:28:22;100352.38;;;19.82;51.86